createdAt,value
2019-04-03T00:02:08.904Z,1.30
2019-04-03T00:07:14.481Z,0.97
2019-04-03T00:12:19.915Z,0.87
2019-04-03T00:17:25.309Z,1.07
2019-04-03T00:22:30.694Z,1.43
2019-04-03T00:27:36.181Z,2.00
2019-04-03T00:32:41.693Z,1.73
2019-04-03T00:37:47.318Z,1.10
2019-04-03T00:42:54.576Z,1.10
2019-04-03T00:47:59.887Z,0.80
2019-04-03T00:53:05.396Z,1.13
2019-04-03T00:58:38.020Z,1.57
2019-04-03T01:03:43.453Z,1.90
2019-04-03T01:08:48.949Z,1.10
2019-04-03T01:13:54.326Z,1.40
2019-04-03T01:18:59.735Z,1.10
2019-04-03T01:24:07.732Z,1.27
2019-04-03T01:29:12.745Z,1.43
2019-04-03T01:34:18.330Z,1.23
2019-04-03T01:39:23.656Z,1.50
2019-04-03T01:44:29.047Z,1.35
2019-04-03T01:49:34.415Z,1.10
2019-04-03T01:54:39.873Z,1.35
2019-04-03T01:59:45.310Z,0.50
2019-04-03T02:04:50.854Z,0.87
2019-04-03T02:09:56.545Z,1.30
2019-04-03T02:15:02.015Z,1.30
2019-04-03T02:20:07.550Z,1.40
2019-04-03T02:25:13.060Z,0.80
2019-04-03T02:30:18.910Z,1.80
2019-04-03T02:35:24.328Z,1.70
2019-04-03T02:40:32.690Z,0.10
2019-04-03T02:45:37.208Z,0.75
2019-04-03T02:50:46.571Z,1.20
2019-04-03T02:55:51.045Z,1.50
2019-04-03T03:00:58.134Z,1.40
2019-04-03T03:06:03.631Z,1.00
2019-04-03T03:11:09.440Z,1.10
2019-04-03T03:16:18.132Z,1.15
2019-04-03T03:21:22.770Z,0.47
2019-04-03T03:26:29.663Z,0.50
2019-04-03T03:32:01.592Z,0.95
2019-04-03T03:36:43.443Z,0.73
2019-04-03T03:41:50.014Z,0.67
2019-04-03T03:46:59.353Z,0.73
2019-04-03T03:52:05.547Z,1.10
2019-04-03T03:57:11.702Z,0.77
2019-04-03T04:02:17.331Z,1.10
2019-04-03T04:07:23.502Z,0.43
2019-04-03T04:12:29.167Z,0.47
2019-04-03T04:17:34.787Z,1.33
2019-04-03T04:22:41.190Z,0.90
2019-04-03T04:27:47.121Z,0.88
2019-04-03T04:32:52.511Z,0.80
2019-04-03T04:37:58.039Z,0.90
2019-04-03T04:43:04.346Z,0.60
2019-04-03T04:48:10.440Z,0.97
2019-04-03T04:53:15.918Z,1.50
2019-04-03T04:58:21.262Z,1.77
2019-04-03T05:03:26.626Z,1.20
2019-04-03T05:08:32.971Z,1.30
2019-04-03T05:13:39.089Z,1.30
2019-04-03T05:18:44.812Z,0.80
2019-04-03T05:23:50.274Z,1.00
2019-04-03T05:28:57.585Z,1.40
2019-04-03T05:34:02.899Z,1.40
2019-04-03T05:39:09.314Z,0.93
2019-04-03T05:44:14.804Z,1.73
2019-04-03T05:49:20.206Z,1.20
2019-04-03T05:54:25.741Z,1.30
2019-04-03T05:59:33.683Z,1.10
2019-04-03T06:04:40.171Z,0.90
2019-04-03T06:09:45.519Z,1.20
2019-04-03T06:14:51.006Z,0.73
2019-04-03T06:19:58.361Z,1.67
2019-04-03T06:25:03.868Z,1.13
2019-04-03T06:30:10.067Z,1.62
2019-04-03T06:35:15.685Z,1.10
2019-04-03T06:40:21.285Z,0.83
2019-04-03T06:45:27.106Z,1.52
2019-04-03T06:50:32.726Z,0.98
2019-04-03T06:55:38.327Z,0.75
2019-04-03T07:00:45.263Z,0.80
2019-04-03T07:05:51.146Z,0.80
2019-04-03T07:10:56.567Z,1.60
2019-04-03T07:16:02.225Z,0.80
2019-04-03T07:21:07.866Z,1.00
2019-04-03T07:26:13.445Z,1.03
2019-04-03T07:31:24.329Z,1.90
2019-04-03T07:36:29.265Z,0.70
2019-04-03T07:41:34.869Z,0.60
2019-04-03T07:46:40.525Z,0.70
2019-04-03T07:51:46.421Z,0.90
2019-04-03T07:56:52.126Z,1.03
2019-04-03T08:01:57.568Z,1.30
2019-04-03T08:07:03.005Z,1.13
2019-04-03T08:12:08.879Z,1.37
2019-04-03T08:17:16.695Z,1.07
2019-04-03T08:22:24.582Z,1.32
2019-04-03T08:27:30.178Z,1.27
2019-04-03T08:32:38.142Z,1.30
2019-04-03T08:37:43.770Z,0.40
2019-04-03T08:42:49.225Z,0.70
2019-04-03T08:47:54.858Z,1.40
2019-04-03T08:53:00.486Z,0.93
2019-04-03T08:58:06.128Z,1.43
2019-04-03T09:03:12.317Z,0.97
2019-04-03T09:08:18.926Z,1.40
2019-04-03T09:13:24.837Z,1.57
2019-04-03T09:18:31.923Z,1.03
2019-04-03T09:23:37.453Z,0.90
2019-04-03T09:28:42.986Z,1.00
2019-04-03T09:33:48.505Z,1.83
2019-04-03T09:38:57.225Z,1.90
2019-04-03T09:44:02.708Z,2.30
2019-04-03T09:49:08.479Z,1.57
2019-04-03T09:54:16.626Z,1.63
2019-04-03T09:59:22.526Z,1.90
2019-04-03T10:04:28.066Z,2.30
2019-04-03T10:09:33.666Z,0.90
2019-04-03T10:14:39.241Z,1.07
2019-04-03T10:19:46.174Z,1.53
2019-04-03T10:24:52.039Z,0.50
2019-04-03T10:29:57.667Z,0.83
2019-04-03T10:35:03.439Z,0.80
2019-04-03T10:40:10.488Z,1.07
2019-04-03T10:45:17.825Z,1.10
2019-04-03T10:50:24.506Z,0.70
2019-04-03T10:55:30.463Z,1.37
2019-04-03T11:00:36.143Z,1.03
2019-04-03T11:05:41.745Z,0.90
2019-04-03T11:10:49.106Z,0.90
2019-04-03T11:15:54.718Z,0.90
2019-04-03T11:21:00.285Z,1.03
2019-04-03T11:26:05.945Z,1.87
2019-04-03T11:31:24.212Z,1.30
2019-04-03T11:36:18.869Z,1.57
2019-04-03T11:41:24.561Z,2.57
2019-04-03T11:46:31.326Z,2.80
2019-04-03T11:51:36.787Z,2.80
2019-04-03T11:56:45.227Z,2.40
2019-04-03T12:01:51.625Z,2.97
2019-04-03T12:06:57.451Z,2.73
2019-04-03T12:12:03.363Z,2.57
2019-04-03T12:17:09.445Z,2.60
2019-04-03T12:22:15.382Z,2.10
2019-04-03T12:27:23.142Z,2.80
2019-04-03T12:32:37.861Z,2.40
2019-04-03T12:37:36.041Z,2.23
2019-04-03T12:42:42.665Z,2.13
2019-04-03T12:47:48.185Z,1.97
2019-04-03T12:52:53.945Z,1.98
2019-04-03T12:57:59.451Z,2.37
2019-04-03T13:03:05.553Z,1.53
2019-04-03T13:08:11.246Z,2.23
2019-04-03T13:13:17.069Z,3.23
2019-04-03T13:18:22.667Z,1.83
2019-04-03T13:23:28.325Z,2.00
2019-04-03T13:28:35.967Z,2.67
2019-04-03T13:33:41.437Z,2.42
2019-04-03T13:38:47.119Z,2.03
2019-04-03T13:43:54.382Z,2.43
2019-04-03T13:49:00.279Z,2.30
2019-04-03T13:54:08.007Z,2.60
2019-04-03T13:59:14.152Z,2.10
2019-04-03T14:04:22.715Z,3.23
2019-04-03T14:09:27.272Z,3.63
2019-04-03T14:14:35.202Z,2.22
2019-04-03T14:19:46.083Z,2.40
2019-04-03T14:24:52.598Z,2.70
2019-04-03T14:29:59.317Z,2.63
2019-04-03T14:35:31.293Z,2.33
2019-04-03T14:40:13.508Z,2.70
2019-04-03T14:45:19.210Z,1.87
2019-04-03T14:50:25.026Z,3.13
2019-04-03T14:55:30.926Z,1.62
2019-04-03T15:00:38.026Z,1.55
2019-04-03T15:05:44.894Z,1.93
2019-04-03T15:10:50.843Z,2.13
2019-04-03T15:15:58.812Z,2.43
2019-04-03T15:21:03.545Z,2.00
2019-04-03T15:26:09.701Z,1.70
2019-04-03T15:31:15.899Z,1.90
2019-04-03T15:36:21.630Z,2.53
2019-04-03T15:41:28.627Z,1.30
2019-04-03T15:46:35.064Z,1.87
2019-04-03T15:51:40.851Z,1.42
2019-04-03T15:56:50.044Z,1.60
2019-04-03T16:01:56.446Z,1.53
2019-04-03T16:07:02.127Z,1.30
2019-04-03T16:12:07.928Z,2.10
2019-04-03T16:17:13.605Z,2.53
2019-04-03T16:22:19.526Z,1.90
2019-04-03T16:27:28.604Z,3.10
2019-04-03T16:32:34.405Z,2.00
2019-04-03T16:37:40.258Z,2.10
2019-04-03T16:42:47.955Z,1.70
2019-04-03T16:47:53.237Z,1.90
2019-04-03T16:52:58.840Z,2.70
2019-04-03T16:58:04.516Z,1.43
2019-04-03T17:03:10.126Z,2.37
2019-04-03T17:08:15.914Z,1.90
2019-04-03T17:13:21.591Z,2.10
2019-04-03T17:18:27.046Z,2.83
2019-04-03T17:23:32.577Z,1.80
2019-04-03T17:28:40.566Z,2.57
2019-04-03T17:33:45.405Z,1.70
2019-04-03T17:38:50.907Z,1.67
2019-04-03T17:43:56.613Z,2.33
2019-04-03T17:49:02.110Z,1.93
2019-04-03T17:54:08.329Z,2.43
2019-04-03T17:59:14.266Z,1.93
2019-04-03T18:04:20.243Z,2.00
2019-04-03T18:09:26.281Z,1.73
2019-04-03T18:14:32.921Z,1.27
2019-04-03T18:19:41.513Z,1.10
2019-04-03T18:24:45.752Z,1.57
2019-04-03T18:29:51.452Z,1.90
2019-04-03T18:34:56.911Z,1.77
2019-04-03T18:40:02.430Z,2.47
2019-04-03T18:45:24.032Z,1.77
2019-04-03T18:50:19.367Z,2.30
2019-04-03T18:55:25.031Z,2.80
2019-04-03T19:00:31.208Z,3.20
2019-04-03T19:05:36.790Z,3.40
2019-04-03T19:10:42.320Z,2.50
2019-04-03T19:15:47.761Z,1.93
2019-04-03T19:20:53.392Z,2.63
2019-04-03T19:26:00.009Z,1.33
2019-04-03T19:31:08.495Z,2.67
2019-04-03T19:36:13.351Z,1.03
2019-04-03T19:41:18.852Z,1.10
2019-04-03T19:46:24.412Z,1.90
2019-04-03T19:51:29.973Z,2.60
2019-04-03T19:56:35.471Z,1.90
2019-04-03T20:01:41.071Z,1.90
2019-04-03T20:06:47.601Z,1.93
2019-04-03T20:11:53.467Z,0.90
2019-04-03T20:16:59.012Z,0.67
2019-04-03T20:22:07.658Z,0.70
2019-04-03T20:27:13.261Z,0.90
2019-04-03T20:32:20.713Z,1.40
2019-04-03T20:37:26.603Z,0.60
2019-04-03T20:42:32.409Z,1.00
2019-04-03T20:47:37.943Z,1.10
2019-04-03T20:52:45.702Z,0.80
2019-04-03T20:57:55.727Z,0.50
2019-04-03T21:02:57.831Z,0.80
2019-04-03T21:08:03.276Z,0.90
2019-04-03T21:13:09.298Z,0.90
2019-04-03T21:18:15.061Z,0.67
2019-04-03T21:23:20.772Z,2.60
2019-04-03T21:28:32.176Z,1.33
2019-04-03T21:33:37.733Z,0.93
2019-04-03T21:38:45.891Z,0.80
2019-04-03T21:43:51.509Z,1.00
2019-04-03T21:48:57.096Z,1.43
2019-04-03T21:54:02.561Z,1.30
2019-04-03T21:59:10.592Z,0.93
2019-04-03T22:04:15.256Z,1.33
2019-04-03T22:09:20.752Z,1.17
2019-04-03T22:14:26.645Z,1.25
2019-04-03T22:19:32.096Z,1.80
2019-04-03T22:24:37.918Z,1.67
2019-04-03T22:29:43.816Z,1.30
2019-04-03T22:34:49.126Z,1.70
2019-04-03T22:39:54.525Z,1.93
2019-04-03T22:45:00.046Z,1.57
2019-04-03T22:50:05.895Z,1.23
2019-04-03T22:55:12.989Z,1.03
2019-04-03T23:00:18.660Z,2.23
2019-04-03T23:05:24.218Z,1.70
2019-04-03T23:10:36.936Z,2.03
2019-04-03T23:15:42.441Z,2.13
2019-04-03T23:20:48.023Z,1.83
2019-04-03T23:25:53.935Z,1.60
2019-04-03T23:30:59.444Z,1.67
2019-04-03T23:36:04.994Z,2.07
2019-04-03T23:41:10.416Z,2.60
2019-04-03T23:46:16.016Z,2.73
2019-04-03T23:51:23.422Z,1.97
2019-04-03T23:56:28.918Z,1.97
